Country
Station

 

Weather  for  Norrkoping  -  Sweden    Sweden

  
17 °C (63 °F)
    
 
 

Current METAR for Norrkoping is :

ESSP 201950Z 27004KT CAVOK 17/17 Q1006

 

This is a report for Norrkoping - Sweden.
 
The report was made 33 minutes ago, at 19:50 UTC .
The wind was blowing at a speed of 2.1 meters per second (4.6 miles per hour) from west (270°).
 
The temperature was 17 °C (63 °F), with a dew-point at 17 °C (63 °F).
The atmospheric pressure was 1006 hPa (29.71 inHg).
The relative humidity was 100.0%.
 
There were no clouds below 1500 meter (5000 feet) and no cumulonimbus clouds.
 
The overall visibility was greater than 10 kilometers (6.2 miles).
 

 
 
 
 

Country :   A   B   C   D   E   F   G   H   I   J   K   L   M   N   O   P   Q   R   S   T   U   V   W   Y   Z

 

Site Info  |  Disclaimer  |  Credits  |  Privacy
Contact us  |  Add to favorites
© 2013-2019 METARs - All rights reserved